Time;durP1;ratioP1;P1;durP2;ratioP2;P2;SDS_P1;SDS_P2;PMS_P1;PMS_P2;Temp;Humidity;BMP_temperature;BMP_pressure;BME280_temperature;BME280_humidity;BME280_pressure;Samples;Min_cycle;Max_cycle;Signal;HPM_P1;HPM_P2
2021/05/22 00:01:05;;;;;;;0.00;0.00;;;;;;;19.57;38.39;101383.72;143730;589;47010;-78
2021/05/22 00:03:34;;;;;;;0.00;0.00;;;;;;;19.52;38.46;101380.44;143732;660;46023;-78
2021/05/22 00:06:01;;;;;;;0.20;0.20;;;;;;;19.51;38.70;101381.41;143728;570;46907;-76
2021/05/22 00:08:28;;;;;;;0.10;0.10;;;;;;;19.45;38.78;101380.81;143732;633;46029;-76
2021/05/22 00:10:56;;;;;;;0.37;0.17;;;;;;;19.37;39.00;101380.38;143726;617;47010;-75
2021/05/22 00:13:23;;;;;;;0.20;0.13;;;;;;;19.33;38.81;101384.12;143733;572;47010;-75
2021/05/22 00:15:50;;;;;;;0.20;0.20;;;;;;;19.27;38.89;101387.13;143731;565;46016;-74
2021/05/22 00:18:17;;;;;;;0.03;0.03;;;;;;;19.23;38.80;101385.56;143730;615;47010;-71
2021/05/22 00:20:44;;;;;;;0.00;0.00;;;;;;;19.20;38.99;101383.06;143728;569;47010;-72
2021/05/22 00:23:13;;;;;;;0.00;0.00;;;;;;;19.20;39.00;101391.06;143734;573;47012;-72
2021/05/22 00:25:41;;;;;;;0.00;0.00;;;;;;;19.18;38.90;101387.62;143727;649;46903;-75
2021/05/22 00:28:08;;;;;;;0.10;0.10;;;;;;;19.13;39.17;101385.22;143732;579;46010;-77
2021/05/22 00:30:35;;;;;;;0.00;0.00;;;;;;;19.08;38.89;101389.91;143731;623;46906;-76
2021/05/22 00:33:02;;;;;;;0.10;0.10;;;;;;;19.07;39.29;101381.06;143730;648;46021;-77
2021/05/22 00:35:29;;;;;;;0.05;0.00;;;;;;;19.04;39.17;101386.56;143731;586;47012;-74
2021/05/22 00:37:57;;;;;;;0.25;0.15;;;;;;;19.02;39.56;101383.09;143731;627;46914;-74
2021/05/22 00:40:24;;;;;;;0.28;0.10;;;;;;;18.99;39.39;101385.94;143732;564;46010;-73
2021/05/22 00:42:51;;;;;;;0.10;0.10;;;;;;;18.96;39.55;101377.25;143732;589;47012;-74
2021/05/22 00:45:23;;;;;;;0.10;0.10;;;;;;;18.91;39.72;101375.69;143732;583;46012;-74
2021/05/22 00:47:54;;;;;;;0.85;0.20;;;;;;;18.91;39.54;101372.19;143730;570;46021;-73
2021/05/22 00:50:28;;;;;;;0.00;0.00;;;;;;;18.90;39.80;101375.78;143728;596;47008;-73
2021/05/22 00:52:56;;;;;;;0.00;0.00;;;;;;;18.88;39.75;101375.84;143730;582;48008;-73
2021/05/22 00:55:24;;;;;;;0.00;0.00;;;;;;;18.86;39.93;101376.84;143728;620;47018;-75
2021/05/22 00:57:51;;;;;;;0.00;0.00;;;;;;;18.83;39.85;101383.19;143729;588;47010;-76
2021/05/22 01:00:48;;;;;;;0.05;0.05;;;;;;;18.82;39.90;101392.13;143728;570;46018;-76
2021/05/22 01:03:37;;;;;;;0.00;0.00;;;;;;;18.73;40.31;101376.63;143732;690;46021;-82
2021/05/22 01:06:36;;;;;;;0.00;0.00;;;;;;;18.67;39.88;101375.16;143732;585;46033;-80
2021/05/22 01:09:12;;;;;;;0.15;0.13;;;;;;;18.67;39.75;101387.56;143733;589;46011;-83
2021/05/22 01:11:49;;;;;;;0.15;0.00;;;;;;;18.64;40.15;101379.75;143732;571;46010;-83
2021/05/22 01:14:26;;;;;;;0.00;0.00;;;;;;;18.63;40.29;101386.91;143733;581;46010;-79
2021/05/22 01:16:56;;;;;;;0.08;0.08;;;;;;;18.62;40.31;101385.16;143731;627;47013;-76
2021/05/22 01:20:24;;;;;;;0.37;0.17;;;;;;;18.52;40.36;101375.94;143731;616;47010;-74
2021/05/22 01:22:57;;;;;;;0.00;0.00;;;;;;;18.62;40.24;101390.50;143730;610;47011;-74
2021/05/22 01:25:41;;;;;;;0.20;0.10;;;;;;;18.62;40.52;101382.50;143730;649;47021;-73
2021/05/22 01:28:11;;;;;;;0.10;0.10;;;;;;;18.61;40.17;101388.75;143730;609;46018;-73
2021/05/22 01:30:39;;;;;;;0.00;0.00;;;;;;;18.55;40.72;101383.78;143732;573;46013;-73
2021/05/22 01:33:08;;;;;;;0.03;0.03;;;;;;;18.54;40.86;101382.87;143728;641;46906;-73
2021/05/22 01:35:36;;;;;;;0.00;0.00;;;;;;;18.56;40.64;101388.12;143734;610;46010;-75
2021/05/22 01:38:04;;;;;;;0.00;0.00;;;;;;;18.55;40.85;101389.94;143730;565;47012;-73
2021/05/22 01:40:31;;;;;;;0.00;0.00;;;;;;;18.55;40.61;101392.59;143731;581;46021;-77
2021/05/22 01:42:59;;;;;;;0.08;0.08;;;;;;;18.54;40.70;101390.88;143729;563;46018;-77
2021/05/22 01:45:32;;;;;;;0.00;0.00;;;;;;;18.52;40.67;101395.41;143735;574;47008;-76
2021/05/22 01:48:03;;;;;;;0.00;0.00;;;;;;;18.50;40.57;101391.97;143728;623;47019;-77
2021/05/22 01:50:34;;;;;;;0.00;0.00;;;;;;;18.47;41.00;101397.44;143732;579;47010;-74
2021/05/22 01:53:07;;;;;;;0.00;0.00;;;;;;;18.46;40.91;101408.16;143728;572;46018;-78
2021/05/22 01:55:38;;;;;;;0.10;0.10;;;;;;;18.41;40.95;101401.28;143732;618;47008;-78
2021/05/22 01:58:06;;;;;;;0.00;0.00;;;;;;;18.42;41.11;101402.97;143730;585;47012;-76
2021/05/22 02:00:34;;;;;;;0.10;0.10;;;;;;;18.38;41.12;101404.06;143733;579;47008;-75
2021/05/22 02:03:46;;;;;;;0.00;0.00;;;;;;;18.33;41.14;101400.78;143732;573;46016;-75
2021/05/22 02:06:23;;;;;;;0.15;0.05;;;;;;;18.23;41.53;101399.50;143734;594;47010;-74
2021/05/22 02:08:55;;;;;;;0.00;0.00;;;;;;;18.01;41.81;101387.28;143729;564;46017;-76
2021/05/22 02:11:23;;;;;;;0.00;0.00;;;;;;;18.10;41.73;101409.91;143732;580;46020;-77
2021/05/22 02:13:52;;;;;;;0.05;0.05;;;;;;;18.06;41.72;101409.19;143729;604;46018;-77
2021/05/22 02:16:26;;;;;;;0.08;0.08;;;;;;;18.03;41.97;101414.66;143730;572;47011;-79
2021/05/22 02:19:04;;;;;;;0.00;0.00;;;;;;;17.98;42.08;101408.69;143732;585;46034;-96
2021/05/22 02:21:42;;;;;;;0.00;0.00;;;;;;;18.03;42.30;101398.69;143742;669;46010;-85
2021/05/22 02:24:15;;;;;;;0.10;0.10;;;;;;;18.01;42.06;101392.59;143738;613;46011;-82
2021/05/22 02:26:43;;;;;;;0.00;0.00;;;;;;;17.94;42.17;101393.81;143740;581;46010;-81
2021/05/22 02:29:17;;;;;;;0.00;0.00;;;;;;;17.87;42.29;101395.03;143737;613;46018;-81
2021/05/22 02:31:48;;;;;;;0.00;0.00;;;;;;;17.80;42.09;101401.56;143736;678;46011;-81
2021/05/22 02:34:19;;;;;;;0.00;0.00;;;;;;;17.74;42.39;101416.87;143736;569;47010;-85
2021/05/22 02:36:48;;;;;;;0.00;0.00;;;;;;;17.75;42.60;101420.37;143737;591;47008;-82
2021/05/22 02:39:17;;;;;;;0.00;0.00;;;;;;;17.71;42.93;101411.66;143738;644;46908;-82
2021/05/22 02:41:47;;;;;;;0.00;0.00;;;;;;;17.62;43.28;101392.66;143739;604;46010;-86
2021/05/22 02:44:17;;;;;;;0.20;0.10;;;;;;;17.52;43.52;101386.91;143731;721;46018;-88
2021/05/22 02:46:49;;;;;;;0.00;0.00;;;;;;;17.40;43.64;101381.25;143741;564;47008;-84
2021/05/22 02:49:28;;;;;;;0.00;0.00;;;;;;;17.31;43.64;101368.41;143737;583;47029;-83
2021/05/22 02:51:59;;;;;;;0.00;0.00;;;;;;;17.30;43.68;101356.06;143737;575;46020;-81
2021/05/22 02:54:28;;;;;;;0.25;0.10;;;;;;;17.30;43.51;101350.75;143735;583;46906;-81
2021/05/22 02:56:57;;;;;;;0.15;0.08;;;;;;;17.26;43.24;101351.81;143734;599;47010;-82
2021/05/22 02:59:27;;;;;;;0.10;0.10;;;;;;;17.31;43.70;101351.63;143735;587;46908;-76
2021/05/22 03:01:55;;;;;;;0.00;0.00;;;;;;;17.30;43.72;101366.66;143737;586;47008;-77
2021/05/22 03:04:22;;;;;;;0.10;0.10;;;;;;;17.32;43.71;101379.87;143737;581;47010;-80
2021/05/22 03:06:50;;;;;;;0.00;0.00;;;;;;;17.30;43.78;101371.97;143736;581;47010;-82
2021/05/22 03:09:17;;;;;;;0.00;0.00;;;;;;;17.39;43.73;101382.19;143730;580;47012;-83
2021/05/22 03:11:44;;;;;;;0.00;0.00;;;;;;;17.45;43.65;101383.69;143738;625;46020;-81
2021/05/22 03:14:11;;;;;;;0.00;0.00;;;;;;;17.53;43.52;101383.34;143738;618;47012;-81
2021/05/22 03:16:38;;;;;;;0.10;0.10;;;;;;;17.58;43.65;101390.16;143737;606;46021;-81
2021/05/22 03:19:05;;;;;;;0.03;0.03;;;;;;;17.60;43.47;101384.78;143736;599;47012;-78
2021/05/22 03:21:33;;;;;;;0.00;0.00;;;;;;;17.68;43.60;101395.03;143737;599;46020;-79
2021/05/22 03:24:00;;;;;;;0.00;0.00;;;;;;;17.73;43.70;101396.53;143738;579;46019;-80
2021/05/22 03:26:29;;;;;;;0.20;0.10;;;;;;;17.80;43.76;101404.22;143738;582;46020;-84
2021/05/22 03:28:56;;;;;;;0.32;0.25;;;;;;;17.85;43.72;101421.69;143737;566;47012;-85
2021/05/22 03:31:23;;;;;;;0.00;0.00;;;;;;;17.88;44.17;101420.66;143740;573;46011;-80
2021/05/22 03:33:50;;;;;;;0.00;0.00;;;;;;;17.84;44.23;101409.31;143731;645;47010;-77
2021/05/22 03:36:17;;;;;;;0.00;0.00;;;;;;;17.85;44.37;101412.81;143736;567;46020;-76
2021/05/22 03:38:45;;;;;;;0.00;0.00;;;;;;;17.82;44.55;101411.16;143737;611;46017;-78
2021/05/22 03:41:12;;;;;;;0.00;0.00;;;;;;;17.81;44.74;101425.41;143740;582;47012;-77
2021/05/22 03:43:39;;;;;;;0.00;0.00;;;;;;;17.80;44.60;101436.06;143734;569;46018;-77
2021/05/22 03:46:06;;;;;;;0.25;0.20;;;;;;;17.80;44.75;101430.75;143739;579;47008;-79
2021/05/22 03:48:33;;;;;;;0.00;0.00;;;;;;;17.75;44.73;101439.81;143734;594;47012;-75
2021/05/22 03:51:00;;;;;;;0.15;0.10;;;;;;;17.76;44.94;101449.50;143738;566;46032;-75
2021/05/22 03:53:27;;;;;;;0.03;0.03;;;;;;;17.74;45.32;101447.84;143737;610;46018;-72
2021/05/22 03:55:57;;;;;;;0.28;0.10;;;;;;;17.70;45.65;101448.94;143738;602;47010;-79
2021/05/22 03:58:24;;;;;;;0.10;0.10;;;;;;;17.66;45.82;101442.03;143730;585;47018;-76
2021/05/22 04:00:51;;;;;;;0.00;0.00;;;;;;;17.61;46.02;101439.59;143740;608;46010;-76
2021/05/22 04:03:19;;;;;;;0.00;0.00;;;;;;;17.58;46.19;101434.44;143739;569;47010;-76
2021/05/22 04:05:46;;;;;;;0.00;0.00;;;;;;;17.54;46.15;101435.53;143738;590;47010;-75
2021/05/22 04:08:13;;;;;;;0.10;0.00;;;;;;;17.52;46.15;101445.34;143740;565;46012;-82
2021/05/22 04:10:44;;;;;;;0.00;0.00;;;;;;;17.59;46.25;101457.37;143736;606;47010;-81
2021/05/22 04:13:11;;;;;;;0.00;0.00;;;;;;;17.65;46.37;101457.13;143738;580;46020;-81
2021/05/22 04:15:39;;;;;;;0.00;0.00;;;;;;;17.75;46.28;101465.53;143739;566;46012;-81
2021/05/22 04:18:06;;;;;;;0.00;0.00;;;;;;;17.84;46.01;101454.47;143736;583;46016;-74
2021/05/22 04:20:33;;;;;;;0.10;0.10;;;;;;;17.94;46.26;101457.59;143738;573;47010;-75
2021/05/22 04:23:00;;;;;;;0.00;0.00;;;;;;;18.05;46.18;101455.28;143729;588;46019;-75
2021/05/22 04:25:28;;;;;;;0.00;0.00;;;;;;;18.14;46.10;101461.97;143738;588;46012;-74
2021/05/22 04:27:55;;;;;;;0.00;0.00;;;;;;;18.29;46.05;101454.16;143740;615;46012;-80
2021/05/22 04:30:23;;;;;;;0.00;0.00;;;;;;;18.43;45.89;101460.53;143738;564;46033;-80
2021/05/22 04:32:50;;;;;;;0.13;0.13;;;;;;;18.60;45.74;101457.06;143737;639;46018;-77
2021/05/22 04:35:17;;;;;;;0.00;0.00;;;;;;;18.77;45.79;101452.69;143739;601;46020;-80
2021/05/22 04:37:45;;;;;;;0.13;0.10;;;;;;;18.92;45.56;101459.06;143739;594;46908;-78
2021/05/22 04:40:12;;;;;;;0.00;0.00;;;;;;;19.05;45.53;101457.47;143738;610;47010;-75
2021/05/22 04:42:39;;;;;;;0.20;0.10;;;;;;;19.20;45.45;101461.13;143740;597;46018;-75
2021/05/22 04:45:08;;;;;;;0.00;0.00;;;;;;;19.36;45.39;101461.19;143739;587;47025;-77
2021/05/22 04:47:38;;;;;;;0.00;0.00;;;;;;;19.53;45.19;101456.75;143731;735;46016;-72
2021/05/22 04:50:07;;;;;;;0.45;0.20;;;;;;;19.67;45.18;101458.66;143736;592;46914;-73
2021/05/22 04:52:34;;;;;;;0.00;0.00;;;;;;;19.75;44.84;101462.66;143735;583;47010;-74
2021/05/22 04:55:02;;;;;;;0.00;0.00;;;;;;;19.86;44.73;101463.87;143739;576;47008;-76
2021/05/22 04:57:29;;;;;;;0.00;0.00;;;;;;;19.98;44.69;101462.34;143736;657;47020;-76
2021/05/22 04:59:56;;;;;;;0.10;0.10;;;;;;;20.11;44.88;101464.22;143736;686;46914;-75
2021/05/22 05:02:23;;;;;;;0.00;0.00;;;;;;;20.22;44.69;101468.97;143736;570;47010;-75
2021/05/22 05:04:50;;;;;;;0.22;0.20;;;;;;;20.33;44.43;101463.00;143741;549;46010;-75
2021/05/22 05:07:17;;;;;;;0.10;0.10;;;;;;;20.43;44.18;101472.19;143737;594;46017;-75
2021/05/22 05:09:45;;;;;;;0.10;0.10;;;;;;;20.57;44.37;101482.09;143738;583;46010;-74
2021/05/22 05:12:13;;;;;;;0.00;0.00;;;;;;;20.66;44.02;101486.00;143733;569;46027;-74
2021/05/22 05:14:40;;;;;;;0.00;0.00;;;;;;;20.73;44.08;101487.41;143737;572;46020;-74
2021/05/22 05:17:08;;;;;;;1.17;0.20;;;;;;;20.78;43.24;101487.16;143739;585;46014;-77
2021/05/22 05:19:35;;;;;;;0.00;0.00;;;;;;;20.84;43.34;101491.25;143740;587;46029;-77
2021/05/22 05:22:02;;;;;;;0.00;0.00;;;;;;;20.90;43.44;101499.75;143738;640;46018;-78
2021/05/22 05:24:29;;;;;;;0.10;0.10;;;;;;;21.05;43.01;101508.69;143738;569;46010;-77
2021/05/22 05:26:56;;;;;;;0.00;0.00;;;;;;;21.15;43.06;101502.78;143735;587;47012;-77
2021/05/22 05:29:24;;;;;;;0.10;0.10;;;;;;;21.24;42.88;101504.87;143735;660;47010;-77
2021/05/22 05:31:51;;;;;;;0.25;0.13;;;;;;;21.38;42.70;101510.25;143739;599;46018;-83
2021/05/22 05:34:18;;;;;;;0.20;0.20;;;;;;;21.43;41.96;101516.19;143739;587;47010;-82
2021/05/22 05:36:45;;;;;;;0.62;0.10;;;;;;;21.47;41.90;101531.06;143735;619;46012;-81
2021/05/22 05:39:13;;;;;;;0.10;0.10;;;;;;;21.44;41.21;101520.53;143739;563;46010;-80
2021/05/22 05:41:40;;;;;;;0.30;0.13;;;;;;;21.46;41.48;101529.34;143739;633;46018;-80
2021/05/22 05:44:08;;;;;;;0.00;0.00;;;;;;;21.58;41.91;101533.12;143738;586;47010;-80
2021/05/22 05:46:35;;;;;;;0.22;0.22;;;;;;;21.70;41.54;101530.62;143737;616;46021;-80
2021/05/22 05:49:02;;;;;;;0.10;0.10;;;;;;;21.81;41.17;101528.13;143738;630;46020;-80
2021/05/22 05:51:29;;;;;;;0.10;0.10;;;;;;;21.93;41.26;101538.06;143735;601;47011;-79
2021/05/22 05:53:56;;;;;;;0.00;0.00;;;;;;;22.05;40.52;101536.44;143737;625;46021;-80
2021/05/22 05:56:23;;;;;;;0.00;0.00;;;;;;;22.15;40.87;101532.19;143738;569;47012;-78
2021/05/22 05:58:50;;;;;;;0.00;0.00;;;;;;;22.29;40.75;101538.47;143738;581;46020;-78
2021/05/22 06:01:17;;;;;;;0.30;0.30;;;;;;;22.40;39.70;101533.31;143733;566;47011;-78
2021/05/22 06:03:44;;;;;;;0.00;0.00;;;;;;;22.48;40.07;101536.38;143739;642;47010;-78
2021/05/22 06:06:11;;;;;;;0.10;0.10;;;;;;;22.60;40.35;101533.84;143737;594;46016;-78
2021/05/22 06:08:39;;;;;;;0.00;0.00;;;;;;;22.73;40.02;101521.37;143737;569;46020;-80
2021/05/22 06:11:08;;;;;;;0.10;0.10;;;;;;;22.82;39.52;101518.06;143738;624;46018;-79
2021/05/22 06:13:35;;;;;;;0.00;0.00;;;;;;;22.85;39.78;101517.00;143739;612;47010;-79
2021/05/22 06:16:20;;;;;;;0.00;0.00;;;;;;;22.90;39.76;101519.38;143739;583;46013;-79
2021/05/22 06:18:47;;;;;;;0.00;0.00;;;;;;;23.03;40.03;101517.56;143738;573;47010;-79
2021/05/22 06:21:15;;;;;;;0.10;0.10;;;;;;;23.16;39.36;101520.31;143738;630;47010;-79
2021/05/22 06:23:42;;;;;;;0.00;0.00;;;;;;;23.16;38.90;101517.63;143737;580;46021;-79
2021/05/22 06:26:21;;;;;;;0.40;0.10;;;;;;;23.00;39.16;101499.03;143730;604;47018;-90
2021/05/22 06:31:23;;;;;;;0.37;0.10;;;;;;;23.39;36.67;101526.75;143731;468;47010;-82
2021/05/22 06:33:51;;;;;;;0.10;0.10;;;;;;;23.29;36.90;101531.03;143738;598;47010;-79
2021/05/22 06:36:18;;;;;;;0.28;0.28;;;;;;;23.19;36.87;101530.81;143736;626;46012;-76
2021/05/22 06:38:45;;;;;;;0.75;0.47;;;;;;;23.21;37.21;101528.91;143735;613;47012;-73
2021/05/22 06:41:12;;;;;;;0.15;0.15;;;;;;;23.25;36.55;101521.50;143733;596;46018;-76
2021/05/22 06:43:39;;;;;;;0.20;0.10;;;;;;;23.23;35.95;101521.59;143736;569;46022;-75
2021/05/22 06:48:58;;;;;;;0.00;0.00;;;;;;;23.28;35.25;101503.38;143733;572;46034;-75
2021/05/22 06:51:25;;;;;;;0.05;0.03;;;;;;;23.39;35.69;101510.69;143728;564;47011;-75
2021/05/22 06:53:53;;;;;;;0.10;0.10;;;;;;;23.46;35.72;101514.63;143734;627;46020;-75
2021/05/22 06:56:20;;;;;;;0.45;0.30;;;;;;;23.53;35.34;101508.88;143736;583;47012;-75
2021/05/22 06:58:47;;;;;;;0.10;0.10;;;;;;;23.49;35.72;101509.06;143735;637;47008;-77
2021/05/22 07:01:14;;;;;;;0.10;0.10;;;;;;;23.43;36.03;101514.87;143736;594;46010;-76
2021/05/22 07:03:41;;;;;;;0.25;0.10;;;;;;;23.45;35.83;101518.28;143738;591;47008;-75
2021/05/22 07:06:14;;;;;;;0.00;0.00;;;;;;;23.43;36.01;101520.22;143733;570;46017;-76
2021/05/22 07:08:41;;;;;;;0.10;0.10;;;;;;;23.34;36.10;101515.50;143737;569;46012;-75
2021/05/22 07:11:09;;;;;;;0.22;0.13;;;;;;;23.37;36.74;101515.28;143735;569;47008;-75
2021/05/22 07:13:36;;;;;;;0.10;0.10;;;;;;;23.45;36.23;101517.44;143737;606;46022;-75
2021/05/22 07:16:04;;;;;;;0.08;0.08;;;;;;;23.45;36.72;101518.28;143729;619;47021;-75
2021/05/22 07:18:32;;;;;;;0.30;0.25;;;;;;;23.52;37.05;101520.53;143732;629;47010;-75
2021/05/22 07:20:59;;;;;;;0.40;0.30;;;;;;;23.58;36.64;101518.28;143733;625;46019;-76
2021/05/22 07:23:26;;;;;;;0.10;0.10;;;;;;;23.66;36.49;101515.94;143737;633;47010;-75
2021/05/22 07:25:53;;;;;;;0.10;0.10;;;;;;;23.65;36.78;101519.56;143738;563;46008;-76
2021/05/22 07:28:20;;;;;;;0.35;0.10;;;;;;;23.64;36.69;101517.84;143737;609;46013;-78
2021/05/22 07:30:47;;;;;;;0.10;0.10;;;;;;;23.67;36.18;101516.78;143734;619;47010;-73
2021/05/22 07:33:15;;;;;;;0.05;0.05;;;;;;;23.71;35.98;101526.31;143738;569;46022;-73
2021/05/22 07:35:42;;;;;;;0.20;0.08;;;;;;;23.82;34.25;101534.47;143734;593;47012;-73
2021/05/22 07:38:09;;;;;;;0.00;0.00;;;;;;;23.84;34.51;101523.62;143735;573;46020;-73
2021/05/22 07:40:36;;;;;;;0.00;0.00;;;;;;;23.87;34.23;101531.44;143730;638;47010;-72
2021/05/22 07:43:03;;;;;;;0.00;0.00;;;;;;;23.96;33.54;101516.53;143737;642;47008;-73
2021/05/22 07:45:30;;;;;;;0.10;0.10;;;;;;;24.12;33.74;101519.81;143736;598;46031;-73
2021/05/22 07:47:58;;;;;;;0.08;0.08;;;;;;;24.15;32.21;101511.56;143737;579;46010;-73
2021/05/22 07:50:26;;;;;;;0.00;0.00;;;;;;;24.37;32.15;101518.03;143735;580;46018;-74
2021/05/22 07:52:53;;;;;;;0.75;0.37;;;;;;;24.55;30.76;101518.50;143735;571;48008;-73
2021/05/22 07:55:21;;;;;;;0.00;0.00;;;;;;;24.55;31.07;101525.69;143734;571;47020;-74
2021/05/22 07:57:48;;;;;;;0.20;0.13;;;;;;;24.78;31.24;101526.66;143737;603;46020;-74
2021/05/22 08:00:17;;;;;;;0.00;0.00;;;;;;;24.82;30.81;101537.09;143736;570;47010;-73
2021/05/22 08:02:47;;;;;;;0.00;0.00;;;;;;;24.89;30.76;101525.84;143736;575;47008;-74
2021/05/22 08:05:15;;;;;;;0.10;0.10;;;;;;;24.87;30.63;101519.78;143731;582;47012;-74
2021/05/22 08:07:42;;;;;;;0.10;0.10;;;;;;;24.93;30.57;101530.91;143737;628;46010;-75
2021/05/22 08:10:11;;;;;;;0.10;0.10;;;;;;;24.98;30.40;101522.47;143731;596;46010;-75
2021/05/22 08:12:38;;;;;;;0.00;0.00;;;;;;;25.04;30.65;101513.94;143736;610;47008;-76
2021/05/22 08:15:07;;;;;;;0.15;0.13;;;;;;;25.17;30.28;101514.72;143736;592;46017;-77
2021/05/22 08:17:34;;;;;;;0.13;0.13;;;;;;;25.23;29.95;101524.13;143738;635;46010;-78
2021/05/22 08:20:03;;;;;;;0.55;0.20;;;;;;;25.38;29.84;101521.25;143734;570;46011;-76
2021/05/22 08:22:30;;;;;;;0.10;0.10;;;;;;;25.47;29.45;101520.53;143739;627;47009;-77
2021/05/22 08:24:57;;;;;;;0.73;0.13;;;;;;;25.50;27.75;101523.81;143733;579;47012;-77
2021/05/22 08:27:24;;;;;;;0.15;0.15;;;;;;;25.39;27.90;101512.22;143738;629;45595;-75
2021/05/22 08:29:51;;;;;;;0.10;0.10;;;;;;;25.32;28.03;101519.88;143727;609;47013;-78
2021/05/22 08:32:18;;;;;;;0.10;0.10;;;;;;;25.29;28.30;101517.44;143737;647;47010;-75
2021/05/22 08:34:45;;;;;;;0.10;0.10;;;;;;;25.36;28.37;101515.13;143733;586;47012;-78
2021/05/22 08:37:13;;;;;;;0.08;0.05;;;;;;;25.44;27.82;101521.63;143736;625;46020;-78
2021/05/22 08:39:44;;;;;;;0.10;0.10;;;;;;;25.35;27.67;101516.97;143735;592;47010;-77
2021/05/22 08:42:27;;;;;;;0.10;0.10;;;;;;;25.33;27.67;101510.88;143737;636;47008;-78
2021/05/22 08:45:12;;;;;;;;;;;;;;;25.32;27.84;101506.44;143739;979;46012;-78
2021/05/22 08:47:40;;;;;;;0.10;0.10;;;;;;;25.41;27.71;101511.13;143742;598;47010;-79
2021/05/22 08:50:13;;;;;;;0.10;0.10;;;;;;;25.39;28.19;101504.16;143734;564;46018;-77
2021/05/22 08:52:40;;;;;;;0.15;0.15;;;;;;;25.42;28.46;101499.38;143739;642;46010;-78
2021/05/22 08:55:09;;;;;;;0.10;0.10;;;;;;;25.48;27.91;101501.59;143730;647;46908;-77
2021/05/22 08:57:37;;;;;;;0.52;0.22;;;;;;;25.48;27.94;101488.16;143737;557;46020;-76
2021/05/22 09:00:12;;;;;;;0.10;0.00;;;;;;;25.54;27.71;101504.78;143735;569;46019;-74
2021/05/22 09:02:40;;;;;;;0.20;0.20;;;;;;;25.52;27.82;101499.53;143740;590;45050;-75
2021/05/22 09:05:18;;;;;;;0.25;0.25;;;;;;;25.59;28.02;101502.56;143736;721;46016;-79
2021/05/22 09:08:00;;;;;;;0.00;0.00;;;;;;;25.64;28.08;101495.00;143735;632;46020;-80
2021/05/22 09:10:48;;;;;;;1.77;0.20;;;;;;;25.80;27.89;101497.31;143736;589;47008;-73
2021/05/22 09:13:29;;;;;;;0.20;0.20;;;;;;;25.93;27.98;101506.12;143735;589;47006;-76
2021/05/22 09:16:09;;;;;;;0.10;0.10;;;;;;;26.05;26.73;101488.13;143734;626;46010;-73
2021/05/22 09:18:39;;;;;;;0.10;0.10;;;;;;;26.13;27.23;101500.97;143735;698;46020;-76
2021/05/22 09:21:11;;;;;;;0.00;0.00;;;;;;;26.20;26.39;101506.72;143730;796;46025;-78
2021/05/22 09:23:42;;;;;;;0.05;0.05;;;;;;;26.26;26.13;101500.81;143726;627;47010;-78
2021/05/22 09:26:13;;;;;;;0.10;0.10;;;;;;;26.26;26.14;101501.69;143735;581;46016;-77
2021/05/22 09:28:51;;;;;;;0.08;0.08;;;;;;;26.20;26.78;101509.41;143736;629;46029;-79
2021/05/22 09:31:27;;;;;;;0.03;0.03;;;;;;;26.26;26.57;101506.19;143736;612;46008;-79
2021/05/22 09:34:03;;;;;;;0.10;0.10;;;;;;;26.32;26.14;101511.09;143739;594;46008;-78
2021/05/22 09:36:45;;;;;;;0.20;0.20;;;;;;;26.43;25.88;101505.66;143732;580;47010;-78
2021/05/22 09:39:19;;;;;;;5.40;0.62;;;;;;;26.49;25.49;101496.19;143734;750;46020;-77
2021/05/22 09:41:48;;;;;;;0.10;0.10;;;;;;;26.32;25.30;101500.31;143738;611;47008;-79
2021/05/22 09:44:25;;;;;;;0.00;0.00;;;;;;;26.25;25.61;101501.81;143739;749;46008;-78
2021/05/22 09:47:03;;;;;;;0.20;0.20;;;;;;;26.19;25.87;101500.47;143730;609;46018;-78
2021/05/22 09:49:33;;;;;;;0.17;0.17;;;;;;;26.01;26.09;101492.91;143736;679;46020;-79
2021/05/22 09:52:10;;;;;;;0.00;0.00;;;;;;;26.05;26.43;101496.19;143737;597;46019;-78
2021/05/22 09:55:00;;;;;;;0.08;0.08;;;;;;;26.15;26.41;101496.34;143736;582;46022;-78
2021/05/22 09:57:48;;;;;;;0.17;0.10;;;;;;;25.96;26.82;101481.66;143732;569;47018;-78
2021/05/22 10:00:21;;;;;;;0.00;0.00;;;;;;;26.05;26.26;101488.13;143736;585;46008;-77
2021/05/22 10:02:59;;;;;;;0.22;0.22;;;;;;;26.04;26.33;101489.12;143736;624;46008;-78
2021/05/22 10:05:33;;;;;;;0.10;0.10;;;;;;;26.08;26.49;101492.41;143738;567;46006;-78
2021/05/22 10:08:03;;;;;;;0.00;0.00;;;;;;;26.19;26.87;101478.94;143735;581;47019;-78
2021/05/22 10:10:53;;;;;;;0.10;0.10;;;;;;;26.21;26.99;101460.81;143736;583;47008;-78
2021/05/22 10:13:22;;;;;;;0.10;0.10;;;;;;;26.35;26.39;101471.31;143727;576;47008;-78
2021/05/22 10:15:55;;;;;;;0.22;0.10;;;;;;;26.29;26.74;101465.59;143737;582;46012;-78
2021/05/22 10:18:27;;;;;;;0.00;0.00;;;;;;;26.33;27.86;101475.97;143736;594;46010;-77
2021/05/22 10:20:57;;;;;;;0.10;0.10;;;;;;;26.43;26.75;101462.59;143734;585;46021;-77
2021/05/22 10:23:24;;;;;;;0.13;0.13;;;;;;;26.43;26.80;101467.13;143740;601;45908;-80
2021/05/22 10:25:54;;;;;;;0.05;0.05;;;;;;;26.35;27.33;101462.38;143736;594;47008;-79
2021/05/22 10:28:23;;;;;;;0.00;0.00;;;;;;;26.55;26.74;101458.00;143733;608;47010;-77
2021/05/22 10:30:50;;;;;;;0.10;0.10;;;;;;;26.43;27.16;101462.59;143735;635;47008;-77
2021/05/22 10:33:18;;;;;;;0.00;0.00;;;;;;;26.42;27.01;101458.19;143735;574;47008;-78
2021/05/22 10:35:56;;;;;;;0.37;0.10;;;;;;;26.32;27.69;101459.94;143733;569;47008;-78
2021/05/22 10:38:41;;;;;;;0.00;0.00;;;;;;;26.31;27.57;101453.72;143732;576;46010;-78
2021/05/22 10:41:14;;;;;;;0.10;0.10;;;;;;;26.30;27.79;101453.81;143738;622;47008;-79
2021/05/22 10:43:53;;;;;;;;;;;;;;;26.24;27.81;101451.66;143742;955;46018;-78
2021/05/22 10:46:21;;;;;;;0.10;0.10;;;;;;;26.12;27.88;101451.69;143741;752;47010;-78
2021/05/22 10:49:02;;;;;;;0.25;0.25;;;;;;;26.01;27.52;101446.28;143736;588;46016;-78
2021/05/22 10:51:38;;;;;;;0.00;0.00;;;;;;;25.98;28.33;101443.84;143735;571;47010;-77
2021/05/22 10:54:14;;;;;;;0.10;0.10;;;;;;;26.08;27.90;101444.84;143734;619;46908;-77
2021/05/22 10:57:03;;;;;;;0.20;0.20;;;;;;;26.28;27.62;101431.56;143738;569;46029;-78
2021/05/22 10:59:31;;;;;;;0.10;0.10;;;;;;;26.46;27.78;101426.47;143736;595;47014;-76
2021/05/22 11:01:59;;;;;;;0.10;0.10;;;;;;;26.60;26.72;101428.00;143734;582;47010;-76
2021/05/22 11:04:28;;;;;;;0.10;0.10;;;;;;;26.57;26.95;101426.41;143731;751;46020;-78
2021/05/22 11:07:02;;;;;;;0.20;0.10;;;;;;;26.71;26.06;101416.34;143737;566;46013;-79
2021/05/22 11:09:51;;;;;;;0.08;0.08;;;;;;;26.73;27.09;101409.84;143729;595;46018;-78
2021/05/22 11:12:42;;;;;;;0.08;0.08;;;;;;;26.82;26.47;101389.34;143735;595;46020;-78
2021/05/22 11:15:47;;;;;;;0.00;0.00;;;;;;;26.99;26.51;101388.72;143735;585;46018;-78
2021/05/22 11:18:17;;;;;;;0.00;0.00;;;;;;;27.06;25.99;101407.06;143736;586;46022;-78
2021/05/22 11:21:30;;;;;;;0.32;0.20;;;;;;;27.14;26.12;101407.25;143736;572;46017;-79
2021/05/22 11:24:08;;;;;;;0.10;0.10;;;;;;;27.20;25.90;101390.50;143739;581;46012;-78
2021/05/22 11:27:04;;;;;;;0.00;0.00;;;;;;;27.32;26.15;101392.13;143734;599;47010;-80
2021/05/22 11:29:57;;;;;;;0.10;0.10;;;;;;;27.42;25.47;101397.59;143737;674;46023;-81
2021/05/22 11:33:00;;;;;;;0.05;0.05;;;;;;;27.35;24.96;101391.00;143729;571;46016;-78
2021/05/22 11:35:44;;;;;;;0.28;0.20;;;;;;;27.30;24.95;101387.88;143737;586;47010;-79
2021/05/22 11:38:32;;;;;;;0.10;0.10;;;;;;;27.26;25.40;101376.50;143737;572;46020;-78
2021/05/22 11:41:07;;;;;;;0.30;0.20;;;;;;;27.32;25.67;101377.78;143740;619;46008;-79
2021/05/22 11:43:36;;;;;;;0.00;0.00;;;;;;;27.29;26.07;101375.38;143735;579;47021;-78
2021/05/22 11:46:10;;;;;;;0.00;0.00;;;;;;;27.17;26.30;101377.31;143737;594;46010;-74
2021/05/22 11:48:53;;;;;;;0.00;0.00;;;;;;;27.19;25.76;101375.34;143734;565;46909;-73
2021/05/22 11:51:30;;;;;;;0.05;0.05;;;;;;;27.25;26.32;101373.94;143737;579;46023;-76